Latest Weather Observations for Bombala AWS

IDN60801

Issued at 11:05 pm EDT Thursday 23 October 2014 (issued every 30 minutes, with the page automatically refreshed every 10 minutes)

About weather observations | Map of weather stations | Latest weather observations for NSW | Other Formats
Station Details ID: 070328 Name: BOMBALA AWS Lat: -37.00 Lon: 149.23 Height: 760.5 m
Data from the previous 72 hours. | See also: Recent months at Bombala AWS
Date/Time
EDT
Temp
°C
App
Temp
°C
Dew
Point
Rel
Hum
%
Delta-T
°C
Wind Press
QNH
hPa
Press
MSL
hPa
Rain
since 9 am
mm
Dir
 
Spd
km/h
Gust
km/h
Spd
kts
Gust
kts
23/11:00pm 11.6 10.8 11.6 100 0.0 SE 7 9 4 5 1021.4 1020.7 5.2
23/10:30pm 12.0 12.2 11.8 99 0.1 SSE 2 6 1 3 1021.3 1020.6 5.2
23/10:00pm 12.3 11.5 11.8 97 0.3 S 7 9 4 5 1021.3 1020.6 5.2
23/09:30pm 12.6 12.0 11.8 95 0.4 E 6 7 3 4 1021.1 1020.4 5.2
23/09:00pm 13.3 12.4 11.5 89 1.0 WSW 7 13 4 7 1020.8 1020.1 5.2
23/08:30pm 14.0 10.8 11.3 84 1.5 WSW 19 30 10 16 1020.6 1019.9 5.2
23/08:00pm 14.2 12.8 12.2 88 1.1 WNW 11 19 6 10 1021.0 1020.3 4.8
23/07:30pm 14.2 12.5 13.7 97 0.3 NW 15 19 8 10 1021.7 1021.0 3.2
23/07:00pm 14.8 13.6 14.0 95 0.5 NNW 13 19 7 10 1021.6 1020.9 3.2
23/06:30pm 15.9 15.3 13.6 86 1.3 ENE 9 13 5 7 1020.8 1020.1 1.8
23/06:00pm 16.5 15.7 16.0 97 0.3 ESE 15 20 8 11 1019.9 1019.2 1.8
23/05:30pm 16.7 15.1 16.4 98 0.2 SE 20 28 11 15 1019.4 1018.7 1.6
23/05:00pm 17.3 15.5 16.0 92 0.8 E 20 26 11 14 1019.6 1018.8 1.2
23/04:30pm 18.7 16.6 15.2 80 2.1 NNE 20 24 11 13 1019.7 1018.9 0.0
23/04:00pm 20.4 19.2 14.1 67 3.8 E 13 20 7 11 1019.4 1018.7 0.0
23/03:30pm 21.6 20.9 15.4 68 3.8 SE 13 22 7 12 1019.4 1018.7 0.0
23/03:00pm 20.9 18.8 16.1 74 3.0 SE 22 28 12 15 1019.2 1018.5 0.0
23/02:30pm 19.6 17.4 15.0 75 2.8 SE 20 26 11 14 1019.3 1018.6 0.0
23/02:00pm 19.8 15.7 14.8 73 3.0 SSE 30 37 16 20 1019.6 1018.8 0.0
23/01:30pm 21.3 18.2 15.6 70 3.5 SSE 26 33 14 18 1019.9 1019.2 0.0
23/01:00pm 22.1 20.8 17.2 74 3.1 SSE 20 28 11 15 1019.8 1019.1 0.0
23/12:30pm 21.9 20.4 16.2 70 3.6 SSE 19 24 10 13 1020.1 1019.4 0.0
23/12:00pm 21.6 20.7 15.9 70 3.5 SE 15 20 8 11 1020.5 1019.8 0.0
23/11:30am 21.7 23.0 17.5 77 2.7 SE 7 13 4 7 1020.7 1020.0 0.0
23/11:00am 21.3 22.7 15.4 69 3.6 NNE 2 6 1 3 1020.8 1020.1 0.0
23/10:30am 19.0 20.3 16.2 84 1.7 N 4 6 2 3 1021.2 1020.5 0.0
23/10:00am 16.0 16.4 14.7 92 0.8 N 6 7 3 4 1021.2 1020.5 0.0
23/09:30am 15.3 16.4 14.5 95 0.5 N 2 4 1 2 1021.0 1020.3 0.0
23/09:00am 14.7 14.9 14.1 96 0.3 NW 6 9 3 5 1020.6 1019.9 0.0
23/08:30am 14.2 13.1 13.2 94 0.6 WNW 11 13 6 7 1020.5 1019.8 0.0
23/08:00am 13.2 11.7 13.0 99 0.1 WNW 13 19 7 10 1020.3 1019.6 0.0
23/07:30am 12.0 10.9 12.0 100 0.0 ENE 9 17 5 9 1020.2 1019.5 0.0
23/07:00am 11.3 10.6 11.3 100 0.0 N 6 7 3 4 1020.8 1020.1 0.0
23/06:30am 10.2 8.2 10.2 100 0.0 N 11 11 6 6 1020.6 1019.9 0.0
23/06:00am 9.6 8.2 9.6 100 0.0 NW 7 9 4 5 1020.4 1019.7 0.0
23/05:30am 10.1 9.0 10.1 100 0.0 NNE 6 7 3 4 1020.1 1019.4 0.0
23/05:00am 10.2 9.2 10.2 100 0.0 N 6 7 3 4 1020.0 1019.3 0.0
23/04:30am 9.9 8.6 9.9 100 0.0 NNW 7 11 4 6 1019.7 1018.9 0.0
23/04:00am 10.2 9.9 10.2 100 0.0 NNW 2 6 1 3 1019.3 1018.6 0.0
23/03:30am 10.3 10.1 10.3 100 0.0 NNW 2 6 1 3 1019.3 1018.6 0.0
23/03:00am 9.5 8.3 9.5 100 0.0 NNW 6 9 3 5 1019.3 1018.6 0.0
23/02:30am 10.8 11.1 10.8 100 0.0 CALM 0 0 0 0 1019.6 1018.8 0.0
23/02:00am 10.1 9.0 10.0 99 0.1 NW 6 7 3 4 1019.6 1018.8 0.0
23/01:30am 11.2 11.6 11.2 100 0.0 CALM 0 0 0 0 1020.1 1019.4 0.0
23/01:00am 11.2 11.6 11.2 100 0.0 CALM 0 0 0 0 1020.6 1019.9 0.0
23/12:30am 10.6 10.8 10.4 99 0.1 CALM 0 0 0 0 1020.7 1020.0 0.0
23/12:00am 11.6 12.0 11.4 99 0.1 WNW 0 0 0 0 1020.6 1019.9 0.0
 
Date/Time
EDT
Temp
°C
App
Temp
°C
Dew
Point
Rel
Hum
%
Delta-T
°C
Wind Press
QNH
hPa
Press
MSL
hPa
Rain
since 9 am
mm
Dir
 
Spd
km/h
Gust
km/h
Spd
kts
Gust
kts
22/11:30pm 11.6 11.3 11.4 99 0.1 WNW 4 6 2 3 1020.7 1020.0 0.0
22/11:00pm 12.2 12.1 12.0 99 0.1 WNW 4 7 2 4 1020.7 1020.0 0.0
22/10:30pm 11.9 12.4 11.7 99 0.1 CALM 0 0 0 0 1020.8 1020.1 0.0
22/10:00pm 13.1 14.0 12.8 98 0.2 CALM 0 0 0 0 1020.8 1020.1 0.0
22/09:30pm 13.9 14.8 13.0 94 0.5 CALM 0 0 0 0 1021.0 1020.3 0.0
22/09:00pm 14.8 15.5 13.3 91 0.9 E 2 4 1 2 1020.8 1020.1 0.0
22/08:30pm 15.8 16.1 13.5 86 1.3 E 4 4 2 2 1020.7 1020.0 0.0
22/08:00pm 16.4 17.6 13.7 84 1.6 CALM 0 0 0 0 1020.4 1019.7 0.0
22/07:30pm 17.1 17.3 14.2 83 1.7 E 6 7 3 4 1020.0 1019.3 0.0
22/07:00pm 18.4 18.4 14.3 77 2.4 SE 7 11 4 6 1019.9 1019.2 0.0
22/06:30pm 20.1 20.0 14.9 72 3.2 SE 9 11 5 6 1019.7 1018.9 0.0
22/06:00pm 21.2 20.0 13.9 63 4.4 SE 13 17 7 9 1019.4 1018.7 0.0
22/05:30pm 22.0 20.4 13.9 60 4.9 SE 15 20 8 11 1019.6 1018.8 0.0
22/05:00pm 22.7 21.1 14.0 58 5.2 SE 15 19 8 10 1019.6 1018.8 0.0
22/04:30pm 23.1 21.9 12.7 52 6.2 SSE 11 19 6 10 1019.4 1018.7 0.0
22/04:00pm 24.0 22.5 9.2 39 8.3 SW 7 13 4 7 1019.7 1018.9 0.0
22/03:30pm 24.1 21.7 10.0 41 8.0 SW 13 19 7 10 1019.9 1019.2 0.0
22/03:00pm 23.8 21.9 10.5 43 7.6 SW 11 20 6 11 1020.2 1019.5 0.0
22/02:30pm 23.6 22.6 10.3 43 7.6 WSW 6 19 3 10 1020.6 1019.9 0.0
22/02:00pm 22.6 22.0 11.7 50 6.3 W 6 11 3 6 1021.1 1020.4 0.0
22/01:30pm 22.2 21.6 12.2 53 5.9 NW 7 15 4 8 1021.5 1020.8 0.0
22/01:00pm 21.8 20.5 10.0 47 6.6 W 7 13 4 7 1021.7 1021.0 0.0
22/12:30pm 20.7 19.3 12.1 58 5.0 NW 11 19 6 10 1021.9 1021.2 0.0
22/12:00pm 19.8 18.3 13.0 65 4.0 NNW 13 19 7 10 1022.6 1021.9 0.0
22/11:30am 18.3 16.8 13.0 71 3.1 NNW 13 19 7 10 1023.0 1022.3 0.0
22/11:00am 17.1 16.1 13.4 79 2.2 NNW 11 17 6 9 1023.6 1023.0 0.0
22/10:30am 15.3 14.3 12.2 82 1.8 NNW 9 15 5 8 1024.1 1023.4 0.0
22/10:00am 14.0 11.7 11.9 87 1.2 NW 15 19 8 10 1024.5 1023.9 0.0
22/09:30am 12.3 10.5 10.9 91 0.8 NNW 11 17 6 9 1024.6 1024.0 0.0
22/09:00am 11.0 9.5 10.7 98 0.2 NNW 9 15 5 8 1024.5 1023.9 0.2
22/08:30am 9.5 7.3 9.4 99 0.1 NNW 11 13 6 7 1024.7 1024.1 0.2
22/08:00am 7.1 4.7 7.1 100 0.0 NNW 9 11 5 6 1024.7 1024.1 0.2
22/07:30am 4.9 2.6 4.9 100 0.0 N 6 7 3 4 1024.6 1024.0 0.2
22/07:00am 3.2 0.6 3.2 100 0.0 N 6 7 3 4 1024.6 1024.0 0.0
22/06:30am 2.9 0.0 2.8 99 0.0 NNW 7 7 4 4 1024.7 1024.1 0.0
22/06:00am 2.9 0.2 2.8 99 0.0 NNW 6 7 3 4 1024.6 1024.0 0.0
22/05:30am 3.5 0.7 3.4 99 0.0 NNW 7 7 4 4 1024.4 1023.8 0.0
22/05:00am 3.7 1.0 3.6 99 0.0 NNW 7 7 4 4 1024.6 1024.0 0.0
22/04:30am 3.3 0.7 3.2 99 0.0 NW 6 7 3 4 1024.9 1024.3 0.0
22/04:00am 5.0 2.7 5.0 100 0.0 WNW 6 7 3 4 1025.1 1024.5 0.0
22/03:30am 4.9 2.4 4.8 99 0.0 NW 7 7 4 4 1025.5 1024.9 0.0
22/03:00am 5.2 3.0 5.1 99 0.0 NNW 6 7 3 4 1025.9 1025.3 0.0
22/02:30am 5.4 3.0 5.3 99 0.0 NNW 7 9 4 5 1026.2 1025.6 0.0
22/02:00am 5.8 3.5 5.7 99 0.0 NNW 7 9 4 5 1026.7 1026.1 0.0
22/01:30am 6.0 3.7 5.9 99 0.0 NNW 7 9 4 5 1027.2 1026.6 0.0
22/01:00am 6.7 4.8 6.6 99 0.0 NNW 6 7 3 4 1027.6 1027.0 0.0
22/12:30am 7.1 5.6 7.0 99 0.0 N 4 6 2 3 1027.8 1027.3 0.0
22/12:00am 7.4 5.6 7.3 99 0.0 N 6 9 3 5 1028.2 1027.6 0.0
 
Date/Time
EDT
Temp
°C
App
Temp
°C
Dew
Point
Rel
Hum
%
Delta-T
°C
Wind Press
QNH
hPa
Press
MSL
hPa
Rain
since 9 am
mm
Dir
 
Spd
km/h
Gust
km/h
Spd
kts
Gust
kts
21/11:30pm 7.8 4.8 7.7 99 0.0 N 13 19 7 10 1028.6 1028.0 0.0
21/11:00pm 7.1 4.7 7.0 99 0.0 N 9 11 5 6 1028.9 1028.4 0.0
21/10:30pm 7.6 4.9 7.5 99 0.0 N 11 15 6 8 1028.9 1028.4 0.0
21/10:00pm 7.2 4.8 7.1 99 0.0 N 9 11 5 6 1029.1 1028.6 0.0
21/09:30pm 7.5 5.2 7.4 99 0.0 NNE 9 19 5 10 1029.0 1028.5 0.0
21/09:00pm 8.0 6.1 7.7 98 0.1 NE 7 11 4 6 1029.0 1028.5 0.0
21/08:30pm 8.3 6.6 7.4 94 0.4 NNE 6 9 3 5 1029.0 1028.5 0.0
21/08:00pm 8.7 7.4 7.5 92 0.6 NE 4 9 2 5 1028.8 1028.2 0.0
21/07:30pm 9.1 6.4 7.4 89 0.8 NE 11 17 6 9 1028.5 1027.9 0.0
21/07:00pm 10.2 7.1 7.4 83 1.4 ENE 13 20 7 11 1028.4 1027.8 0.0
21/06:30pm 11.1 7.3 7.4 78 1.9 ENE 17 22 9 12 1028.2 1027.6 0.0
21/06:00pm 12.1 8.8 8.0 76 2.1 ENE 15 22 8 12 1028.1 1027.5 0.0
21/05:30pm 13.0 10.1 8.3 73 2.4 NE 13 20 7 11 1028.2 1027.6 0.0
21/05:00pm 13.4 10.0 9.1 75 2.3 ENE 17 24 9 13 1028.2 1027.6 0.0
21/04:30pm 13.4 9.8 8.5 72 2.6 ENE 17 26 9 14 1028.3 1027.7 0.0
21/04:00pm 14.1 11.0 8.9 71 2.7 NNE 15 22 8 12 1028.4 1027.8 0.0
21/03:30pm 14.3 11.0 9.7 74 2.5 NNE 17 26 9 14 1028.7 1028.1 0.0
21/03:00pm 13.6 9.9 7.8 68 3.0 NNE 17 26 9 14 1029.1 1028.6 0.0
21/02:30pm 13.2 9.6 8.3 72 2.5 N 17 28 9 15 1029.5 1028.9 0.0
21/02:00pm 13.2 9.1 8.5 73 2.4 NNE 20 33 11 18 1030.0 1029.5 0.0
21/01:30pm 12.6 8.3 7.7 72 2.5 NNE 20 30 11 16 1030.4 1029.9 0.0
21/01:00pm 11.9 7.6 6.8 71 2.5 NNE 19 30 10 16 1030.9 1030.3 0.0
21/12:30pm 11.9 8.1 7.6 75 2.2 NE 17 24 9 13 1031.2 1030.7 0.0
21/12:00pm 10.7 6.1 6.6 76 2.0 N 20 30 11 16 1031.6 1031.1 0.0
21/11:30am 10.4 6.4 6.5 77 1.9 NNE 17 28 9 15 1031.8 1031.3 0.0
21/11:00am 10.4 5.5 6.9 79 1.7 N 22 32 12 17 1032.1 1031.6 0.0
21/10:30am 9.8 4.8 6.3 79 1.7 N 22 30 12 16 1032.1 1031.6 0.0
21/10:00am 9.4 4.5 7.0 85 1.2 N 22 30 12 16 1032.3 1031.7 0.0
21/09:30am 8.9 3.9 6.3 84 1.3 NNE 22 30 12 16 1032.3 1031.7 0.0
21/09:00am 9.1 4.5 5.8 80 1.6 NNE 19 28 10 15 1031.9 1031.4 0.0
21/08:30am 8.2 3.6 5.7 84 1.2 NNE 19 28 10 15 1031.7 1031.2 0.0
21/08:00am 7.9 3.6 5.2 83 1.2 NE 17 32 9 17 1031.7 1031.2 0.0
21/07:30am 7.4 3.1 5.2 86 1.0 NNE 17 22 9 12 1031.4 1030.9 0.0
21/07:00am 7.1 3.2 5.4 89 0.8 NNE 15 22 8 12 1031.4 1030.9 0.0
21/06:30am 6.8 2.9 5.4 91 0.6 NE 15 20 8 11 1031.1 1030.5 0.0
21/06:00am 6.5 2.3 5.5 93 0.5 NE 17 26 9 14 1030.7 1030.2 0.0
21/05:30am 6.5 2.1 4.8 89 0.8 NE 17 32 9 17 1030.6 1030.1 0.0
21/05:00am 5.6 2.0 5.2 97 0.2 NE 13 20 7 11 1030.6 1030.1 0.0
21/04:30am 5.3 2.9 5.2 99 0.0 NE 7 13 4 7 1030.7 1030.2 0.0
21/04:00am 5.1 2.6 5.0 99 0.0 NE 7 13 4 7 1031.0 1030.4 0.0
21/03:30am 5.0 2.7 4.7 98 0.1 NNE 6 9 3 5 1031.1 1030.5 0.0
21/03:00am 5.3 2.8 4.9 97 0.2 NE 7 15 4 8 1031.3 1030.8 0.0
21/02:30am 5.8 2.2 5.2 96 0.3 NE 13 20 7 11 1031.4 1030.9 0.0
21/02:00am 5.6 3.1 4.9 95 0.3 NE 7 20 4 11 1031.6 1031.1 0.0
21/01:30am 5.6 3.3 4.9 95 0.3 ENE 6 9 3 5 1031.9 1031.4 0.0
21/01:00am 6.4 4.1 5.5 94 0.4 NE 7 15 4 8 1032.1 1031.6 0.0
21/12:30am 6.5 3.8 5.6 94 0.4 ENE 9 15 5 8 1032.5 1032.0 0.0
21/12:00am 6.7 4.0 5.7 93 0.5 ENE 9 15 5 8 1032.5 1032.0 0.0
 
Date/Time
EDT
Temp
°C
App
Temp
°C
Dew
Point
Rel
Hum
%
Delta-T
°C
Wind Press
QNH
hPa
Press
MSL
hPa
Rain
since 9 am
mm
Dir
 
Spd
km/h
Gust
km/h
Spd
kts
Gust
kts
20/11:30pm 6.8 4.2 5.9 94 0.4 ENE 9 17 5 9 1032.6 1032.1 0.0

Other Formats:

Comma delimited format used in spreadsheet applications
http://www.bom.gov.au/fwo/IDN60801/IDN60801.94929.axf

JavaScript Object Notation format (JSON) in row-major order
http://www.bom.gov.au/fwo/IDN60801/IDN60801.94929.json